Ivanka — T8A2606 — position and weather

sailwx.info

Track history (hours):
 
Tides and Currents Weather Stations Pressure Air Temp Water Temp Dewpoint Dewpoint Depression Visibility Wind Speed Wind Dir Waves Ship Positions

Ivanka

Last reported at 2018-Jun-08 21:51 UTC. Time now 2018-Jun-21 03:00 UTC.
Position N 34°02' E 034°46'.
Warning: this ship's position is 12 days out of date.

Length 98 m; draft 5.3 m.

Type: Cargo ship. MMSI: 511520000.

Date/timePositionNaut miles runAvg speedWind from/ knotsBaromVisibWave heightAir tempDewpointWater temp
2018-Jun-08 21:51N 34°02' E 034°46'510.4
2018-Jun-08 21:24N 34°05' E 034°41'410.3
2018-Jun-08 21:00N 34°07' E 034°37'510.2
2018-Jun-08 20:30N 34°09' E 034°31'510.1
2018-Jun-08 20:00N 34°11' E 034°26'510.1
2018-Jun-08 19:30N 34°13' E 034°20'610.0
2018-Jun-08 18:56N 34°16' E 034°14'510.0
2018-Jun-08 18:25N 34°18' E 034°08'410.4
2018-Jun-08 18:00N 34°20' E 034°03'5 9.9
2018-Jun-08 17:31N 34°21' E 033°58'610.1
2018-Jun-08 16:56N 34°24' E 033°52'410.1
2018-Jun-08 16:30N 34°26' E 033°47'5 9.9
2018-Jun-08 15:57N 34°28' E 033°41'510.2
2018-Jun-08 15:30N 34°30' E 033°36'810.2
2018-Jun-08 14:42N 34°33' E 033°27'210.3
2018-Jun-08 14:30N 34°34' E 033°24'510.2
2018-Jun-08 14:00N 34°36' E 033°19'510.0
2018-Jun-08 13:30N 34°37' E 033°13'5 9.6
2018-Jun-08 13:00N 34°39' E 033°07'3 5.6
2018-Jun-08 12:30N 34°40' E 033°04'0 0.0
2018-Jun-08 11:55N 34°40' E 033°04'0 0.1
2018-Jun-08 11:29N 34°40' E 033°04'0 0.0
2018-Jun-08 10:53N 34°40' E 033°04'0 0.1
2018-Jun-08 10:28N 34°40' E 033°04'0 0.9
2018-Jun-08 10:00N 34°40' E 033°05'24 8.5
2018-Jun-08 07:12N 34°43' E 033°34'210.1
2018-Jun-08 07:00N 34°43' E 033°36'610.1
2018-Jun-08 06:22N 34°46' E 033°43'4 9.9
2018-Jun-08 06:00N 34°47' E 033°47'  
Track history (hours):
 
Tides and Currents Weather Stations Pressure Air Temp Water Temp Dewpoint Dewpoint Depression Visibility Wind Speed Wind Dir Waves Ship Positions

Ivanka

Last reported at 2018-Jun-08 21:51 UTC. Time now 2018-Jun-21 03:00 UTC.
Position N 34°02' E 034°46'.
Warning: this ship's position is 12 days out of date.

Length 98 m; draft 5.3 m.

Type: Cargo ship. MMSI: 511520000.

Date/timePositionNaut miles runAvg speedWind from/ knotsBaromVisibWave heightAir tempDewpointWater temp
2018-Jun-08 21:51N 34°02' E 034°46'510.4
2018-Jun-08 21:24N 34°05' E 034°41'410.3
2018-Jun-08 21:00N 34°07' E 034°37'510.2
2018-Jun-08 20:30N 34°09' E 034°31'510.1
2018-Jun-08 20:00N 34°11' E 034°26'510.1
2018-Jun-08 19:30N 34°13' E 034°20'610.0
2018-Jun-08 18:56N 34°16' E 034°14'510.0
2018-Jun-08 18:25N 34°18' E 034°08'410.4
2018-Jun-08 18:00N 34°20' E 034°03'5 9.9
2018-Jun-08 17:31N 34°21' E 033°58'610.1
2018-Jun-08 16:56N 34°24' E 033°52'410.1
2018-Jun-08 16:30N 34°26' E 033°47'5 9.9
2018-Jun-08 15:57N 34°28' E 033°41'510.2
2018-Jun-08 15:30N 34°30' E 033°36'810.2
2018-Jun-08 14:42N 34°33' E 033°27'210.3
2018-Jun-08 14:30N 34°34' E 033°24'510.2
2018-Jun-08 14:00N 34°36' E 033°19'510.0
2018-Jun-08 13:30N 34°37' E 033°13'5 9.6
2018-Jun-08 13:00N 34°39' E 033°07'3 5.6
2018-Jun-08 12:30N 34°40' E 033°04'0 0.0
2018-Jun-08 11:55N 34°40' E 033°04'0 0.1
2018-Jun-08 11:29N 34°40' E 033°04'0 0.0
2018-Jun-08 10:53N 34°40' E 033°04'0 0.1
2018-Jun-08 10:28N 34°40' E 033°04'0 0.9
2018-Jun-08 10:00N 34°40' E 033°05'24 8.5
2018-Jun-08 07:12N 34°43' E 033°34'210.1
2018-Jun-08 07:00N 34°43' E 033°36'610.1
2018-Jun-08 06:22N 34°46' E 033°43'4 9.9
2018-Jun-08 06:00N 34°47' E 033°47'  

Dump ship's entire track history